Time;durP1;ratioP1;P1;durP2;ratioP2;P2;SDS_P1;SDS_P2;PMS_P1;PMS_P2;Temp;Humidity;BMP_temperature;BMP_pressure;BME280_temperature;BME280_humidity;BME280_pressure;Samples;Min_cycle;Max_cycle;Signal;HPM_P1;HPM_P2
2021/12/12 00:00:51;;;;;;;41.95;19.35;;;;;;;-3.26;100.00;99253.69;4207133;28;20387;-71
2021/12/12 00:02:59;;;;;;;38.65;18.63;;;;;;;-3.24;100.00;99259.66;4208854;28;20508;-71
2021/12/12 00:05:07;;;;;;;34.15;17.35;;;;;;;-3.21;100.00;99262.63;4210534;27;20135;-72
2021/12/12 00:07:12;;;;;;;36.20;17.08;;;;;;;-3.17;100.00;99260.19;4211643;27;20214;-71
2021/12/12 00:09:19;;;;;;;30.20;15.15;;;;;;;-3.16;100.00;99259.94;4212405;28;20050;-71
2021/12/12 00:11:22;;;;;;;30.65;16.55;;;;;;;-3.16;100.00;99248.28;4212116;27;20048;-71
2021/12/12 00:13:29;;;;;;;30.58;15.88;;;;;;;-3.13;100.00;99256.69;4211630;28;20048;-71
2021/12/12 00:15:30;;;;;;;28.63;15.48;;;;;;;-3.13;100.00;99245.88;4213388;27;20126;-71
2021/12/12 00:17:31;;;;;;;29.77;15.15;;;;;;;-3.14;100.00;99249.66;4212042;27;20185;-71
2021/12/12 00:19:31;;;;;;;29.35;15.38;;;;;;;-3.10;100.00;99247.22;4209910;27;20079;-71
2021/12/12 00:21:34;;;;;;;28.75;16.10;;;;;;;-3.14;100.00;99238.84;4213620;27;20479;-71
2021/12/12 00:23:35;;;;;;;31.33;15.45;;;;;;;-3.09;100.00;99227.19;4210620;28;20170;-71
2021/12/12 00:25:43;;;;;;;30.77;15.38;;;;;;;-3.06;100.00;99240.19;4207611;28;20059;-72
2021/12/12 00:27:44;;;;;;;24.95;15.70;;;;;;;-3.07;100.00;99252.06;4212043;27;20058;-72
2021/12/12 00:29:46;;;;;;;25.23;15.07;;;;;;;-3.08;100.00;99260.47;4213807;27;20052;-72
2021/12/12 00:31:48;;;;;;;31.85;16.13;;;;;;;-3.09;100.00;99254.25;4211578;28;20031;-71
2021/12/12 00:33:50;;;;;;;32.97;15.52;;;;;;;-3.06;100.00;99252.88;4212791;27;20084;-71
2021/12/12 00:35:51;;;;;;;25.63;15.85;;;;;;;-3.05;100.00;99259.97;4212845;27;20043;-71
2021/12/12 00:37:58;;;;;;;23.52;14.57;;;;;;;-3.03;100.00;99263.19;4212089;27;20755;-71
2021/12/12 00:40:20;;;;;;;22.98;13.23;;;;;;;-3.00;100.00;99270.78;4212142;28;20119;-71
2021/12/12 00:42:29;;;;;;;28.15;15.02;;;;;;;-2.97;100.00;99267.53;4209912;27;20051;-71
2021/12/12 00:44:30;;;;;;;28.42;15.15;;;;;;;-2.95;100.00;99273.50;4212181;27;20045;-71
2021/12/12 00:46:31;;;;;;;29.55;14.43;;;;;;;-2.93;100.00;99266.72;4214724;27;20044;-72
2021/12/12 00:48:34;;;;;;;27.50;14.40;;;;;;;-2.91;100.00;99261.84;4214308;27;20399;-72
2021/12/12 00:50:40;;;;;;;27.35;14.32;;;;;;;-2.89;100.00;99259.69;4210090;27;20048;-71
2021/12/12 00:52:43;;;;;;;28.02;14.38;;;;;;;-2.88;100.00;99261.31;4214488;27;20135;-71
2021/12/12 00:54:45;;;;;;;23.70;13.55;;;;;;;-2.86;100.00;99266.44;4213328;27;20046;-71
2021/12/12 00:56:47;;;;;;;27.65;13.43;;;;;;;-2.90;100.00;99271.56;4212501;27;20514;-71
2021/12/12 00:58:47;;;;;;;28.70;14.30;;;;;;;-2.93;100.00;99268.63;4215236;27;20051;-71
2021/12/12 01:00:55;;;;;;;24.17;13.40;;;;;;;-2.96;100.00;99271.88;4214148;27;20311;-71
2021/12/12 01:02:58;;;;;;;26.38;13.55;;;;;;;-3.00;100.00;99263.47;4212627;27;20059;-71
2021/12/12 01:05:00;;;;;;;;;;;;;;;-3.00;100.00;99276.19;4214143;27;20031;-71
2021/12/12 01:07:05;;;;;;;21.88;12.55;;;;;;;-3.02;100.00;99273.75;4210645;27;19923;-71
2021/12/12 01:09:15;;;;;;;26.80;14.15;;;;;;;-3.01;100.00;99280.78;4210324;27;20136;-71
2021/12/12 01:11:38;;;;;;;28.67;14.35;;;;;;;-2.97;100.00;99284.59;4215261;27;20101;-71
2021/12/12 01:13:39;;;;;;;27.08;13.30;;;;;;;-2.92;100.00;99287.28;4209890;27;20418;-71
2021/12/12 01:15:51;;;;;;;29.92;14.27;;;;;;;-2.90;100.00;99301.38;4214121;27;20048;-71
2021/12/12 01:17:55;;;;;;;30.77;15.63;;;;;;;-2.89;100.00;99286.78;4212902;27;20448;-72
2021/12/12 01:20:11;;;;;;;25.60;14.85;;;;;;;-2.90;100.00;99301.38;4212991;27;20130;-72
2021/12/12 01:22:17;;;;;;;27.67;15.55;;;;;;;-2.90;100.00;99297.84;4214083;27;20360;-71
2021/12/12 01:24:33;;;;;;;26.77;13.70;;;;;;;-2.91;100.00;99307.06;4213942;27;20031;-72
2021/12/12 01:26:35;;;;;;;25.98;13.95;;;;;;;-3.00;100.00;99312.19;4217141;27;20388;-71
2021/12/12 01:28:38;;;;;;;27.27;14.68;;;;;;;-3.04;100.00;99304.91;4219279;27;20533;-71
2021/12/12 01:30:39;;;;;;;31.50;15.48;;;;;;;-3.08;100.00;99293.78;4215396;27;20040;-71
2021/12/12 01:32:40;;;;;;;29.38;14.68;;;;;;;-3.14;100.00;99301.09;4213774;27;20118;-71
2021/12/12 01:34:42;;;;;;;26.30;15.55;;;;;;;-3.20;100.00;99306.75;4210382;28;20052;-71
2021/12/12 01:38:56;;;;;;;22.38;12.90;;;;;;;-3.29;100.00;99287.53;4212683;27;20043;-71
2021/12/12 01:40:58;;;;;;;29.30;14.10;;;;;;;-3.29;100.00;99292.94;4211065;27;20101;-71
2021/12/12 01:43:04;;;;;;;28.63;15.07;;;;;;;-3.37;100.00;99298.06;4211459;27;20155;-71
2021/12/12 01:45:07;;;;;;;28.80;15.38;;;;;;;-3.45;100.00;99305.63;4214192;27;20055;-71
2021/12/12 01:47:20;;;;;;;27.88;15.48;;;;;;;-3.55;100.00;99291.25;4208618;27;20044;-71
2021/12/12 01:49:23;;;;;;;27.63;15.35;;;;;;;-3.58;100.00;99284.47;4212035;27;20043;-71
2021/12/12 01:51:26;;;;;;;26.85;14.98;;;;;;;-3.62;100.00;99288.78;4212184;27;20396;-71
2021/12/12 01:53:30;;;;;;;29.00;14.80;;;;;;;-3.60;100.00;99277.69;4212915;27;20031;-71
2021/12/12 01:55:45;;;;;;;25.95;14.82;;;;;;;-3.60;100.00;99280.41;4214204;27;20044;-72
2021/12/12 01:57:46;;;;;;;26.10;13.90;;;;;;;-3.63;100.00;99276.34;4210021;28;20039;-72
2021/12/12 01:59:47;;;;;;;28.15;14.55;;;;;;;-3.67;100.00;99275.25;4214550;27;20046;-72
2021/12/12 02:01:52;;;;;;;26.92;14.82;;;;;;;-3.65;100.00;99267.66;4213420;27;20335;-71
2021/12/12 02:04:07;;;;;;;29.92;13.70;;;;;;;-3.68;100.00;99262.81;4213365;27;20040;-71
2021/12/12 02:06:15;;;;;;;26.63;13.65;;;;;;;-3.64;100.00;99274.72;4211147;27;20046;-71
2021/12/12 02:08:18;;;;;;;25.45;13.90;;;;;;;-3.69;100.00;99274.69;4215745;27;20036;-71
2021/12/12 02:10:27;;;;;;;26.55;12.82;;;;;;;-3.73;100.00;99271.69;4211602;27;20506;-72
2021/12/12 02:12:28;;;;;;;25.60;13.73;;;;;;;-3.71;100.00;99269.56;4211186;27;20035;-71
2021/12/12 02:14:32;;;;;;;22.65;12.77;;;;;;;-3.79;100.00;99277.38;4211614;27;20040;-71
2021/12/12 02:16:32;;;;;;;25.63;13.57;;;;;;;-3.86;100.00;99279.50;4213458;27;20126;-71
2021/12/12 02:18:37;;;;;;;28.13;13.50;;;;;;;-3.86;100.00;99280.31;4214227;27;20125;-71
2021/12/12 02:20:46;;;;;;;24.05;13.35;;;;;;;-3.87;100.00;99276.00;4211798;27;20331;-71
2021/12/12 02:23:15;;;;;;;23.85;14.15;;;;;;;-3.86;100.00;99280.31;4212924;27;20100;-71
2021/12/12 02:36:46;;;;;;;28.33;14.25;;;;;;;-3.72;100.00;99276.06;4210658;27;20407;-71
2021/12/12 02:38:49;;;;;;;25.80;14.38;;;;;;;-3.72;100.00;99281.47;4210581;27;20044;-71
2021/12/12 02:40:58;;;;;;;;;;;;;;;-3.73;100.00;99276.28;4209612;27;20153;-71
2021/12/12 02:42:59;;;;;;;21.45;12.23;;;;;;;-3.77;100.00;99283.31;4207300;27;20019;-71
2021/12/12 02:45:03;;;;;;;30.05;14.98;;;;;;;-3.81;100.00;99276.81;4208668;27;20094;-71
2021/12/12 02:47:11;;;;;;;25.58;12.75;;;;;;;-3.79;100.00;99288.19;4208116;27;20036;-71
2021/12/12 02:49:35;;;;;;;26.52;13.45;;;;;;;-3.76;100.00;99276.84;4209589;27;20460;-71
2021/12/12 02:51:37;;;;;;;27.85;13.02;;;;;;;-3.83;100.00;99285.19;4206648;27;20105;-71
2021/12/12 02:53:50;;;;;;;25.67;14.68;;;;;;;-3.86;100.00;99285.72;4209104;27;20107;-71
2021/12/12 02:56:01;;;;;;;28.40;13.20;;;;;;;-3.83;100.00;99287.06;4207574;28;20098;-71
2021/12/12 02:58:05;;;;;;;29.40;14.18;;;;;;;-3.86;100.00;99293.84;4207011;27;20043;-71
2021/12/12 03:00:08;;;;;;;21.30;12.13;;;;;;;-3.81;100.00;99298.44;4206001;27;20089;-71
2021/12/12 03:02:14;;;;;;;23.70;13.40;;;;;;;-3.84;100.00;99293.56;4209576;27;20345;-71
2021/12/12 03:04:15;;;;;;;21.70;12.27;;;;;;;-3.80;100.00;99295.50;4204635;27;20085;-71
2021/12/12 03:06:21;;;;;;;27.17;12.93;;;;;;;-3.74;100.00;99296.31;4207908;27;20524;-71
2021/12/12 03:08:21;;;;;;;27.67;14.02;;;;;;;-3.68;100.00;99289.84;4206784;27;20051;-71
2021/12/12 03:10:28;;;;;;;26.55;13.13;;;;;;;-3.68;100.00;99293.34;4206011;27;20063;-71
2021/12/12 03:12:33;;;;;;;27.60;14.02;;;;;;;-3.65;100.00;99283.09;4206507;27;20520;-71
2021/12/12 03:14:35;;;;;;;25.38;12.80;;;;;;;-3.67;100.00;99284.16;4207909;27;20068;-71
2021/12/12 03:16:36;;;;;;;25.48;13.95;;;;;;;-3.65;100.00;99288.50;4208318;27;20148;-71
2021/12/12 03:18:43;;;;;;;27.15;13.95;;;;;;;-3.68;100.00;99285.25;4207116;27;20879;-71
2021/12/12 03:20:50;;;;;;;26.13;13.40;;;;;;;-3.69;100.00;99290.94;4205623;27;20068;-71
2021/12/12 03:22:54;;;;;;;26.65;12.70;;;;;;;-3.61;100.00;99289.59;4206063;28;20036;-71
2021/12/12 03:24:55;;;;;;;25.30;14.10;;;;;;;-3.60;100.00;99296.63;4205429;27;20036;-71
2021/12/12 03:26:59;;;;;;;25.80;14.05;;;;;;;-3.63;100.00;99287.16;4207215;28;20055;-72
2021/12/12 03:29:00;;;;;;;22.08;11.93;;;;;;;-3.65;100.00;99291.19;4204308;28;20354;-72
2021/12/12 03:31:05;;;;;;;23.40;12.57;;;;;;;-3.62;100.00;99290.69;4206530;27;20353;-72
2021/12/12 03:33:08;;;;;;;26.55;12.95;;;;;;;-3.60;100.00;99300.16;4204764;28;20041;-71
2021/12/12 03:35:09;;;;;;;26.13;12.13;;;;;;;-3.58;100.00;99295.28;4205624;28;20040;-71
2021/12/12 03:37:12;;;;;;;24.33;12.52;;;;;;;-3.54;100.00;99304.50;4207790;28;20081;-71
2021/12/12 03:39:20;;;;;;;25.92;12.57;;;;;;;-3.50;100.00;99297.47;4206154;28;20084;-71
2021/12/12 03:41:26;;;;;;;23.98;12.15;;;;;;;-3.46;100.00;99295.06;4204181;28;20063;-71
2021/12/12 03:43:27;;;;;;;24.38;12.43;;;;;;;-3.42;100.00;99302.38;4209121;28;20772;-71
2021/12/12 03:45:28;;;;;;;23.70;12.10;;;;;;;-3.36;100.00;99302.41;4207632;28;20055;-71
2021/12/12 03:47:33;;;;;;;23.35;12.55;;;;;;;-3.36;100.00;99305.91;4204659;27;20044;-71
2021/12/12 03:49:37;;;;;;;20.30;11.10;;;;;;;-3.34;100.00;99314.56;4204267;28;20051;-71
2021/12/12 03:51:40;;;;;;;19.75;11.02;;;;;;;-3.31;100.00;99316.75;4205915;27;20396;-71
2021/12/12 03:53:40;;;;;;;;;;;;;;;-3.28;100.00;99316.22;4205915;28;20414;-71
2021/12/12 03:55:42;;;;;;;20.60;10.35;;;;;;;-3.31;100.00;99308.63;4206095;28;19970;-71
2021/12/12 03:57:44;;;;;;;21.75;11.98;;;;;;;-3.25;100.00;99317.56;4209919;28;20044;-71
2021/12/12 03:59:45;;;;;;;21.48;11.20;;;;;;;-3.27;100.00;99317.84;4206042;28;20532;-71
2021/12/12 04:01:48;;;;;;;23.85;11.95;;;;;;;-3.26;100.00;99303.22;4215449;28;20079;-71
2021/12/12 04:03:52;;;;;;;20.23;11.23;;;;;;;-3.24;100.00;99306.47;4207744;27;20031;-71
2021/12/12 04:05:58;;;;;;;23.08;12.05;;;;;;;-3.23;100.00;99304.56;4208154;28;20105;-71
2021/12/12 04:07:58;;;;;;;18.77;11.07;;;;;;;-3.24;100.00;99306.47;4208214;28;20442;-71
2021/12/12 04:10:00;;;;;;;27.27;12.15;;;;;;;-3.23;100.00;99305.38;4208193;27;20401;-71
2021/12/12 04:12:04;;;;;;;21.70;11.52;;;;;;;-3.24;100.00;99311.88;4212700;28;20055;-71
2021/12/12 04:14:06;;;;;;;22.65;12.20;;;;;;;-3.25;100.00;99299.44;4209111;27;20039;-71
2021/12/12 04:16:07;;;;;;;20.77;12.07;;;;;;;-3.24;100.00;99305.66;4205227;27;20023;-71
2021/12/12 04:18:07;;;;;;;24.23;11.85;;;;;;;-3.29;100.00;99306.47;4211016;27;20072;-71
2021/12/12 04:20:16;;;;;;;23.70;12.52;;;;;;;-3.32;100.00;99312.41;4210550;27;20027;-71
2021/12/12 04:22:16;;;;;;;24.58;13.13;;;;;;;-3.34;100.00;99309.16;4214674;27;20505;-71
2021/12/12 04:24:22;;;;;;;23.17;12.32;;;;;;;-3.34;100.00;99300.22;4211352;27;20028;-71
2021/12/12 04:26:28;;;;;;;25.75;12.38;;;;;;;-3.35;100.00;99304.81;4210343;27;20452;-71
2021/12/12 04:28:28;;;;;;;19.63;11.85;;;;;;;-3.33;100.00;99299.94;4215397;27;20044;-71
2021/12/12 04:30:29;;;;;;;21.88;11.98;;;;;;;-3.32;100.00;99298.06;4206833;27;20047;-71
2021/12/12 04:32:30;;;;;;;21.52;11.00;;;;;;;-3.30;100.00;99301.34;4210633;27;20036;-71
2021/12/12 04:34:33;;;;;;;25.80;12.30;;;;;;;-3.37;100.00;99304.28;4208245;27;20052;-71
2021/12/12 04:36:37;;;;;;;24.13;12.05;;;;;;;-3.37;100.00;99307.00;4208732;27;20043;-71
2021/12/12 04:38:37;;;;;;;23.80;11.75;;;;;;;-3.39;100.00;99309.16;4219906;27;20628;-71
2021/12/12 04:40:38;;;;;;;21.55;11.35;;;;;;;-3.38;100.00;99302.66;4211331;27;20141;-71
2021/12/12 04:42:40;;;;;;;20.50;10.98;;;;;;;-3.35;100.00;99299.41;4212428;27;20509;-71
2021/12/12 04:44:42;;;;;;;24.80;11.70;;;;;;;-3.34;100.00;99301.03;4208432;27;20129;-71
2021/12/12 04:51:49;;;;;;;25.52;12.23;;;;;;;-3.44;100.00;99319.97;4209503;27;20502;-71
2021/12/12 04:53:54;;;;;;;23.58;12.77;;;;;;;-3.50;100.00;99321.00;4206138;27;20476;-71
2021/12/12 04:55:57;;;;;;;22.75;11.98;;;;;;;-3.53;100.00;99327.78;4209853;27;20146;-71
2021/12/12 04:58:13;;;;;;;19.90;10.48;;;;;;;-3.56;100.00;99325.56;4208884;27;20484;-71
2021/12/12 05:00:21;;;;;;;22.40;12.05;;;;;;;-3.59;100.00;99331.53;4207463;27;20032;-71
2021/12/12 05:02:34;;;;;;;21.90;11.32;;;;;;;-3.62;100.00;99323.16;4208994;27;20044;-71
2021/12/12 05:04:47;;;;;;;17.80;10.45;;;;;;;-3.70;100.00;99329.88;4207319;27;20286;-71
2021/12/12 05:06:54;;;;;;;22.85;11.13;;;;;;;-3.76;100.00;99322.81;4211952;27;20036;-71
2021/12/12 05:09:27;;;;;;;19.77;10.65;;;;;;;-3.75;100.00;99317.13;4208156;27;20127;-71
2021/12/12 05:11:38;;;;;;;20.33;11.38;;;;;;;-3.79;100.00;99315.22;4196825;27;20566;-71
2021/12/12 05:13:46;;;;;;;20.17;10.52;;;;;;;-3.85;100.00;99314.38;4210314;27;20032;-71
2021/12/12 05:15:50;;;;;;;22.67;10.15;;;;;;;-3.86;100.00;99317.34;4209877;27;20040;-71
2021/12/12 05:17:59;;;;;;;21.40;10.73;;;;;;;-3.86;100.00;99323.56;4213077;27;20044;-71
2021/12/12 05:20:06;;;;;;;23.27;11.52;;;;;;;-3.88;100.00;99311.41;4207274;27;20141;-71
2021/12/12 05:22:11;;;;;;;19.95;11.20;;;;;;;-3.87;100.00;99329.25;4207541;27;20038;-71
2021/12/12 05:24:13;;;;;;;26.27;13.70;;;;;;;-3.96;100.00;99327.03;4206930;27;20076;-71
2021/12/12 05:26:16;;;;;;;;;;;;;;;-4.00;100.00;99331.34;4206842;27;20019;-72
2021/12/12 05:28:18;;;;;;;;;;;;;;;-3.99;100.00;99345.66;4211390;27;19921;-71
2021/12/12 05:30:24;;;;;;;22.30;10.98;;;;;;;-3.96;100.00;99337.88;4206278;27;19920;-71
2021/12/12 05:32:26;;;;;;;22.88;11.43;;;;;;;-3.96;100.00;99334.34;4209009;27;20052;-71
2021/12/12 05:34:30;;;;;;;22.70;11.27;;;;;;;-3.93;100.00;99339.22;4205997;27;20044;-71
2021/12/12 05:36:34;;;;;;;25.70;11.50;;;;;;;-3.92;100.00;99348.13;4213265;27;20051;-72
2021/12/12 05:38:35;;;;;;;24.17;12.02;;;;;;;-3.90;100.00;99344.09;4208043;27;20782;-72
2021/12/12 05:40:40;;;;;;;27.20;12.98;;;;;;;-3.94;100.00;99340.28;4209641;27;20039;-72
2021/12/12 05:42:41;;;;;;;22.23;11.73;;;;;;;-3.91;100.00;99349.75;4205540;27;20541;-71
2021/12/12 05:44:42;;;;;;;22.80;11.68;;;;;;;-3.90;100.00;99351.38;4209600;27;20457;-71
2021/12/12 05:46:43;;;;;;;18.35;9.68;;;;;;;-3.93;100.00;99346.50;4207063;27;20441;-71
2021/12/12 05:48:45;;;;;;;27.27;11.10;;;;;;;-3.94;100.00;99339.47;4204739;27;20577;-72
2021/12/12 05:50:46;;;;;;;20.45;11.18;;;;;;;-3.92;100.00;99346.25;4213141;27;20051;-72
2021/12/12 05:52:46;;;;;;;24.55;11.55;;;;;;;-3.87;100.00;99351.69;4207386;27;20040;-71
2021/12/12 05:54:48;;;;;;;22.35;10.85;;;;;;;-3.85;100.00;99356.84;4207345;27;20040;-71
2021/12/12 05:56:49;;;;;;;18.58;10.50;;;;;;;-3.82;100.00;99354.41;4206427;27;20055;-71
2021/12/12 05:58:50;;;;;;;18.67;9.88;;;;;;;-3.78;100.00;99346.59;4207620;27;20297;-71
2021/12/12 06:00:58;;;;;;;21.02;10.13;;;;;;;-3.82;100.00;99349.00;4206931;27;20463;-71
2021/12/12 06:02:59;;;;;;;22.75;10.32;;;;;;;-3.86;100.00;99347.91;4208302;27;20466;-71
2021/12/12 06:04:59;;;;;;;19.40;10.18;;;;;;;-3.80;100.00;99351.47;4211289;27;20348;-71
2021/12/12 06:07:03;;;;;;;20.73;10.18;;;;;;;-3.80;100.00;99357.69;4206884;27;20428;-71
2021/12/12 06:09:06;;;;;;;17.63;9.45;;;;;;;-3.85;100.00;99349.53;4205802;27;20468;-71
2021/12/12 06:11:07;;;;;;;18.40;9.80;;;;;;;-3.88;100.00;99351.97;4207534;27;20036;-71
2021/12/12 06:13:12;;;;;;;22.85;11.00;;;;;;;-3.91;100.00;99342.47;4209156;27;20068;-71
2021/12/12 06:15:16;;;;;;;21.08;10.65;;;;;;;-3.89;100.00;99343.00;4205800;28;20051;-71
2021/12/12 06:17:18;;;;;;;21.90;11.30;;;;;;;-3.84;100.00;99334.94;4206581;27;20982;-71
2021/12/12 06:19:23;;;;;;;23.38;11.25;;;;;;;-3.78;100.00;99344.72;4208002;27;20047;-71
2021/12/12 06:21:24;;;;;;;20.83;9.98;;;;;;;-3.78;100.00;99343.91;4208976;27;20480;-71
2021/12/12 06:23:26;;;;;;;19.23;9.80;;;;;;;-3.76;100.00;99341.72;4204457;27;20356;-71
2021/12/12 06:25:27;;;;;;;22.20;10.55;;;;;;;-3.76;100.00;99344.44;4206248;27;20442;-71
2021/12/12 06:27:29;;;;;;;20.08;9.98;;;;;;;-3.76;100.00;99345.25;4207363;27;20040;-71
2021/12/12 06:29:29;;;;;;;17.17;9.75;;;;;;;-3.76;100.00;99342.53;4205602;28;20048;-71
2021/12/12 06:31:30;;;;;;;19.38;9.57;;;;;;;-3.73;100.00;99342.00;4203910;27;20032;-71
2021/12/12 06:33:32;;;;;;;16.35;9.10;;;;;;;-3.72;100.00;99345.56;4209495;27;20332;-71
2021/12/12 06:35:33;;;;;;;19.27;9.77;;;;;;;-3.69;100.00;99348.53;4208281;27;20054;-71
2021/12/12 06:37:33;;;;;;;19.40;9.20;;;;;;;-3.64;100.00;99344.22;4208689;27;20044;-71
2021/12/12 06:39:36;;;;;;;18.60;8.93;;;;;;;-3.62;100.00;99336.66;4206829;28;20105;-71
2021/12/12 06:41:37;;;;;;;18.48;9.45;;;;;;;-3.57;100.00;99342.09;4207757;27;20429;-71
2021/12/12 06:43:40;;;;;;;17.02;8.23;;;;;;;-3.54;100.00;99344.28;4209994;27;20068;-71
2021/12/12 06:45:40;;;;;;;17.30;9.07;;;;;;;-3.50;100.00;99338.06;4208012;27;20109;-71
2021/12/12 06:47:41;;;;;;;16.92;8.98;;;;;;;-3.46;100.00;99341.88;4208637;27;20036;-71
2021/12/12 06:49:43;;;;;;;16.30;9.13;;;;;;;-3.43;100.00;99351.34;4207048;27;20057;-71
2021/12/12 06:51:50;;;;;;;17.20;9.07;;;;;;;-3.46;100.00;99352.69;4209159;28;20260;-71
2021/12/12 06:53:51;;;;;;;16.05;7.90;;;;;;;-3.46;100.00;99341.88;4208209;27;20199;-71
2021/12/12 06:55:54;;;;;;;19.48;9.27;;;;;;;-3.43;100.00;99349.44;4209898;27;20467;-71
2021/12/12 06:57:54;;;;;;;;;;;;;;;-3.42;100.00;99359.19;4211971;27;21734;-71
2021/12/12 06:59:56;;;;;;;18.60;10.20;;;;;;;-3.39;100.00;99365.97;4211950;27;19924;-71
2021/12/12 07:01:58;;;;;;;21.88;11.35;;;;;;;-3.38;100.00;99369.50;4213279;27;20245;-71
2021/12/12 07:04:00;;;;;;;20.58;9.77;;;;;;;-3.40;100.00;99357.03;4208497;27;20044;-72
2021/12/12 07:06:01;;;;;;;20.67;9.90;;;;;;;-3.39;100.00;99347.03;4206415;28;20494;-71
2021/12/12 07:08:03;;;;;;;17.30;8.65;;;;;;;-3.38;100.00;99354.06;4210970;27;20523;-72
2021/12/12 07:10:06;;;;;;;18.13;9.70;;;;;;;-3.37;100.00;99361.13;4204835;27;20776;-71
2021/12/12 07:12:11;;;;;;;18.23;8.45;;;;;;;-3.35;100.00;99353.53;4210896;27;20028;-71
2021/12/12 07:14:14;;;;;;;16.95;8.40;;;;;;;-3.34;100.00;99352.44;4209118;28;20099;-71
2021/12/12 07:16:15;;;;;;;16.35;8.55;;;;;;;-3.32;100.00;99350.28;4212324;27;20027;-71
2021/12/12 07:18:19;;;;;;;23.30;11.53;;;;;;;-3.33;100.00;99348.66;4206523;28;20369;-71
2021/12/12 07:20:20;;;;;;;21.95;10.93;;;;;;;-3.29;100.00;99357.09;4205657;27;20634;-72
2021/12/12 07:22:21;;;;;;;23.88;12.57;;;;;;;-3.29;100.00;99352.47;4205460;27;20097;-71
2021/12/12 07:24:23;;;;;;;21.80;11.10;;;;;;;-3.28;100.00;99343.28;4206291;28;20044;-71
2021/12/12 07:26:24;;;;;;;27.35;13.35;;;;;;;-3.21;100.00;99351.97;4205446;27;20043;-71
2021/12/12 07:28:27;;;;;;;31.85;16.60;;;;;;;-3.16;100.00;99357.38;4210127;28;20508;-71
2021/12/12 07:30:28;;;;;;;33.10;14.98;;;;;;;-3.12;100.00;99363.91;4208239;28;20044;-71
2021/12/12 07:32:29;;;;;;;26.17;14.10;;;;;;;-3.11;100.00;99357.41;4207108;28;20040;-71
2021/12/12 07:34:30;;;;;;;27.27;14.15;;;;;;;-3.10;100.00;99355.50;4205356;28;20382;-71
2021/12/12 07:36:35;;;;;;;28.65;13.63;;;;;;;-3.05;100.00;99350.09;4210814;28;20046;-71
2021/12/12 07:38:41;;;;;;;25.17;13.00;;;;;;;-2.88;100.00;99347.97;4210952;28;20043;-71
2021/12/12 07:40:44;;;;;;;28.42;15.60;;;;;;;-2.80;100.00;99343.09;4209112;27;20039;-71
2021/12/12 07:42:46;;;;;;;26.23;13.57;;;;;;;-2.77;100.00;99343.38;4209631;28;20059;-71
2021/12/12 07:44:46;;;;;;;24.27;14.32;;;;;;;-2.73;100.00;99346.34;4209749;28;20515;-71
2021/12/12 07:46:49;;;;;;;24.92;14.07;;;;;;;-2.72;100.00;99348.81;4211171;28;20058;-71
2021/12/12 07:48:52;;;;;;;26.15;14.77;;;;;;;-2.75;100.00;99343.91;4208778;28;20105;-71
2021/12/12 07:50:54;;;;;;;25.27;15.02;;;;;;;-2.73;100.00;99354.47;4211808;27;20480;-71
2021/12/12 07:52:54;;;;;;;33.33;18.42;;;;;;;-2.73;100.00;99347.19;4212604;27;20044;-71
2021/12/12 07:55:00;;;;;;;36.92;21.92;;;;;;;-2.71;100.00;99350.44;4212677;27;20036;-71
2021/12/12 07:57:04;;;;;;;28.02;17.23;;;;;;;-2.69;100.00;99348.25;4210895;27;20817;-71
2021/12/12 07:59:07;;;;;;;30.65;11.18;;;;;;;-2.64;100.00;99348.28;4213779;27;20051;-71
2021/12/12 08:01:08;;;;;;;21.90;12.55;;;;;;;-2.61;100.00;99352.31;4212708;27;20036;-71
2021/12/12 08:03:08;;;;;;;21.80;11.82;;;;;;;-2.60;100.00;99354.75;4211321;27;20119;-71
2021/12/12 08:05:13;;;;;;;18.50;10.40;;;;;;;-2.51;100.00;99362.34;4215050;27;20051;-71
2021/12/12 08:07:19;;;;;;;17.85;10.75;;;;;;;-2.47;100.00;99358.84;4210569;27;20040;-71
2021/12/12 08:09:22;;;;;;;15.70;9.10;;;;;;;-2.44;100.00;99354.75;4213929;27;20051;-71
2021/12/12 08:11:27;;;;;;;17.63;10.15;;;;;;;-2.45;100.00;99361.28;4214185;27;20069;-71
2021/12/12 08:13:29;;;;;;;17.23;9.52;;;;;;;-2.42;100.00;99360.72;4212571;27;20047;-71
2021/12/12 08:15:30;;;;;;;20.38;11.15;;;;;;;-2.41;100.00;99359.63;4215681;27;20307;-71
2021/12/12 08:17:31;;;;;;;18.48;10.90;;;;;;;-2.41;100.00;99362.34;4215418;27;20377;-71
2021/12/12 08:19:31;;;;;;;19.88;11.38;;;;;;;-2.40;100.00;99375.66;4212784;28;20128;-71
2021/12/12 08:21:33;;;;;;;20.52;11.25;;;;;;;-2.38;100.00;99380.78;4213382;27;20036;-71
2021/12/12 08:23:34;;;;;;;25.17;12.38;;;;;;;-2.38;100.00;99373.47;4210175;27;20044;-71
2021/12/12 08:25:36;;;;;;;25.73;14.88;;;;;;;-2.33;100.00;99378.06;4211467;27;20044;-71
2021/12/12 08:27:37;;;;;;;29.40;15.88;;;;;;;-2.34;100.00;99373.72;4206834;27;20532;-71
2021/12/12 08:29:37;;;;;;;23.75;14.70;;;;;;;-2.21;100.00;99373.19;4207810;27;20048;-71
2021/12/12 08:31:39;;;;;;;26.77;12.07;;;;;;;-2.11;100.00;99372.34;4208324;27;20291;-71
2021/12/12 08:33:40;;;;;;;23.43;12.20;;;;;;;-2.05;100.00;99369.38;4208684;27;20070;-71
2021/12/12 08:35:41;;;;;;;17.90;9.63;;;;;;;-1.87;100.00;99369.88;4212358;27;20313;-71
2021/12/12 08:37:44;;;;;;;16.63;8.02;;;;;;;-1.76;100.00;99363.34;4208967;27;20132;-71
2021/12/12 08:39:45;;;;;;;17.33;7.68;;;;;;;-1.51;100.00;99371.38;4207845;27;20036;-71
2021/12/12 08:41:48;;;;;;;12.68;8.00;;;;;;;-1.30;100.00;99353.13;4205847;27;20528;-71
2021/12/12 08:43:49;;;;;;;15.27;7.57;;;;;;;-1.22;100.00;99363.41;4211340;27;20075;-71
2021/12/12 08:45:55;;;;;;;8.52;5.88;;;;;;;-1.16;100.00;99359.59;4208651;27;20051;-71
2021/12/12 08:47:58;;;;;;;12.48;6.75;;;;;;;-1.10;98.06;99357.63;4206335;27;20036;-71
2021/12/12 08:49:59;;;;;;;11.23;6.28;;;;;;;-1.09;95.66;99350.28;4211652;27;20235;-71
2021/12/12 08:52:11;;;;;;;8.48;5.60;;;;;;;-1.02;95.45;99358.94;4212711;27;20425;-71
2021/12/12 08:54:22;;;;;;;12.65;5.55;;;;;;;-1.04;96.69;99355.72;4212105;27;20054;-71
2021/12/12 08:56:41;;;;;;;9.70;5.95;;;;;;;-0.99;100.00;99355.69;4212161;27;20035;-71
2021/12/12 08:58:41;;;;;;;10.77;6.07;;;;;;;-1.00;100.00;99359.47;4206402;27;20460;-71
2021/12/12 09:00:53;;;;;;;13.32;5.05;;;;;;;-0.97;100.00;99362.47;4210012;27;20109;-71
2021/12/12 09:02:54;;;;;;;13.07;6.32;;;;;;;-0.97;100.00;99358.94;4210036;27;20078;-71
2021/12/12 09:05:03;;;;;;;13.50;5.50;;;;;;;-0.99;98.39;99361.94;4212537;27;20038;-71
2021/12/12 09:07:09;;;;;;;9.10;4.95;;;;;;;-0.93;94.19;99357.25;4209203;27;20535;-71
2021/12/12 09:09:20;;;;;;;17.42;8.82;;;;;;;-0.92;97.80;99367.03;4206332;27;20047;-71
2021/12/12 09:11:42;;;;;;;15.02;7.70;;;;;;;-0.88;100.00;99366.22;4207925;27;20048;-71
2021/12/12 09:14:11;;;;;;;8.27;4.45;;;;;;;-0.79;94.34;99357.47;4213539;27;20476;-71
2021/12/12 09:16:24;;;;;;;9.82;5.10;;;;;;;-0.79;94.85;99363.72;4210026;27;20353;-71
2021/12/12 09:18:47;;;;;;;;;;;;;;;-0.81;95.82;99352.31;4207211;27;20040;-71
2021/12/12 09:20:58;;;;;;;21.42;9.52;;;;;;;-0.80;98.30;99353.94;4200366;27;19912;-71
2021/12/12 09:23:06;;;;;;;14.27;8.70;;;;;;;-0.78;99.33;99349.03;4208720;27;20051;-71
2021/12/12 09:25:24;;;;;;;10.68;5.78;;;;;;;-0.59;100.00;99344.53;4206866;27;20061;-71
2021/12/12 09:27:34;;;;;;;8.68;4.47;;;;;;;-0.34;100.00;99342.69;4213542;27;20084;-71
2021/12/12 09:29:56;;;;;;;8.82;5.28;;;;;;;-0.27;94.04;99332.31;4211607;27;20055;-71
2021/12/12 09:32:09;;;;;;;11.00;4.93;;;;;;;-0.27;96.80;99332.31;4206710;27;20044;-71
2021/12/12 09:34:37;;;;;;;7.78;4.78;;;;;;;-0.30;98.97;99332.88;4205676;27;20040;-71
2021/12/12 09:36:42;;;;;;;8.02;3.70;;;;;;;-0.12;100.00;99336.78;4206685;27;20040;-71
2021/12/12 09:38:54;;;;;;;7.10;4.00;;;;;;;-0.06;100.00;99339.19;4211591;27;20079;-71
2021/12/12 09:41:28;;;;;;;9.43;4.32;;;;;;;-0.01;99.77;99327.41;4208087;27;20040;-71
2021/12/12 09:43:43;;;;;;;11.25;4.68;;;;;;;0.07;100.00;99325.97;4211532;27;20059;-71
2021/12/12 09:46:06;;;;;;;8.90;4.40;;;;;;;0.07;98.71;99320.53;4208277;27;20123;-71
2021/12/12 09:51:29;;;;;;;8.07;3.58;;;;;;;0.11;99.22;99319.69;4208772;27;20277;-71
2021/12/12 09:53:52;;;;;;;12.27;4.07;;;;;;;0.12;99.47;99317.78;4206076;27;20063;-71